Latest Coastal Weather Observations for South Johnstone

IDQ60701

Issued at 5:21 pm EST Sunday 29 March 2015 (issued every 10 minutes, with the page automatically refreshed every 10 minutes)

About coastal observations | Map of coastal stations | Coastal observations for QLD | Marine services | Other Formats
Station Details ID: 032037 Name: SOUTH JOHNSTONE EXP STN Lat: -17.61 Lon: 146.00 Height: 18.3 m
Data from the previous 72 hours. | See also: Recent months at South Johnstone
Date/Time
EST
Temp

°C
Wind Pressure Rain
since 9am
mm
Weather Cloud Vis
km
Sea
Height
m
Swell
Dir
 
Speed
knots
Gust
knots
hPa Trend Height
m
Period
s
Dir
29/05:00pm 28.1 SSE 9 13 1015.4 - 0.0 - - - - - - -
29/04:30pm 28.0 SSE 10 14 1015.2 - 0.0 - - - - - - -
29/04:00pm 29.1 SSE 8 13 1014.9 - 0.0 - - - - - - -
29/03:30pm 29.0 SSE 9 13 1014.7 - 0.0 - - - - - - -
29/03:00pm 29.0 SSE 8 13 1014.8 - 0.0 - - - - - - -
29/02:30pm 29.8 SE 10 14 1015.0 - 0.0 - - - - - - -
29/02:00pm 30.0 SE 9 13 1015.2 - 0.0 - - - - - - -
29/01:30pm 29.2 SSE 10 15 1015.7 - 0.0 - - - - - - -
29/01:00pm 29.5 SE 10 19 1015.9 - 0.0 - - - - - - -
29/12:30pm 30.0 SE 11 17 1016.4 - 0.0 - - - - - - -
29/12:00pm 29.6 SE 12 18 1016.8 - 0.0 - - - - - - -
29/11:30am 29.4 SE 11 17 1017.3 - 0.0 - - - - - - -
29/11:00am 30.0 SE 10 15 1017.6 - 0.0 - - - - - - -
29/10:30am 29.6 SE 10 16 1017.7 - 0.0 - - - - - - -
29/10:00am 28.3 SE 8 12 1017.9 - 0.0 - - - - - - -
29/09:30am 28.2 SE 7 11 1017.9 - 0.0 - - - - - - -
29/09:00am 28.2 SE 6 9 1017.4 - 0.0 - - - - - - -
29/08:30am 27.5 ESE 8 13 1017.2 - 0.0 - - - - - - -
29/08:00am 24.4 CALM 0 0 1016.9 - 0.0 - - - - - - -
29/07:30am 22.0 CALM 0 2 1016.6 - 0.0 - - - - - - -
29/07:00am 21.5 WNW 1 4 1016.3 - 0.0 - - - - - - -
29/06:30am 21.0 NW 2 4 1015.8 - 0.0 - - - - - - -
29/06:00am 21.1 NW 1 3 1015.4 - 0.0 - - - - - - -
29/05:30am 21.1 WNW 3 5 1015.1 - 0.0 - - - - - - -
29/05:00am 21.2 WNW 3 5 1014.8 - 0.0 - - - - - - -
29/04:30am 21.3 W 2 4 1014.4 - 0.0 - - - - - - -
29/04:00am 21.1 W 3 4 1014.2 - 0.0 - - - - - - -
29/03:30am 21.1 WNW 3 4 1014.1 - 0.0 - - - - - - -
29/03:00am 21.1 NW 1 3 1014.0 - 0.0 - - - - - - -
29/02:30am 21.2 W 3 5 1014.4 - 0.0 - - - - - - -
29/02:00am 21.2 WNW 2 4 1014.7 - 0.0 - - - - - - -
29/01:30am 21.1 WNW 4 5 1015.2 - 0.0 - - - - - - -
29/01:00am 21.3 NW 2 5 1015.6 - 0.0 - - - - - - -
29/12:30am 21.6 W 4 7 1015.9 - 0.0 - - - - - - -
29/12:00am 21.7 WNW 4 6 1016.0 - 0.0 - - - - - - -
 
Date/Time
EST
Temp

°C
Wind Pressure Rain
since 9am
mm
Weather Cloud Vis
km
Sea
Height
m
Swell
Dir
 
Speed
knots
Gust
knots
hPa Trend Height
m
Period
s
Dir
28/11:30pm 21.9 W 3 5 1016.3 - 0.0 - - - - - - -
28/11:00pm 22.0 WNW 2 4 1016.4 - 0.0 - - - - - - -
28/10:30pm 22.2 NW 3 5 1016.6 - 0.0 - - - - - - -
28/10:00pm 22.5 W 1 5 1016.6 - 0.0 - - - - - - -
28/09:30pm 22.8 WNW 3 5 1016.5 - 0.0 - - - - - - -
28/09:00pm 23.2 CALM 0 0 1016.3 - 0.0 - - - - - - -
28/08:30pm 23.9 WSW 1 4 1016.2 - 0.0 - - - - - - -
28/08:00pm 25.9 SSW 3 5 1015.9 - 0.0 - - - - - - -
28/07:30pm 26.4 SSW 5 6 1015.6 - 0.0 - - - - - - -
28/07:00pm 26.9 SSW 6 8 1015.1 - 0.0 - - - - - - -
28/06:30pm 26.9 SSW 5 7 1014.8 - 0.0 - - - - - - -
28/06:00pm 27.1 S 6 7 1014.3 - 0.0 - - - - - - -
28/05:30pm 27.6 S 6 10 1014.1 - 0.0 - - - - - - -
28/05:00pm 28.5 SSE 7 13 1014.1 - 0.0 - - - - - - -
28/04:30pm 29.0 SSE 7 11 1014.0 - 0.0 - - - - - - -
28/04:00pm 29.2 SSE 8 14 1013.9 - 0.0 - - - - - - -
28/03:30pm 29.1 SSE 9 12 1013.9 - 0.0 - - - - - - -
28/03:00pm 30.0 SSE 8 11 1013.8 - 0.0 - - - - - - -
28/02:30pm 30.2 SSE 8 12 1014.0 - 0.0 - - - - - - -
28/02:00pm 29.6 SSE 9 14 1014.2 - 0.0 - - - - - - -
28/01:30pm 29.6 SSE 8 14 1014.5 - 0.0 - - - - - - -
28/01:00pm 29.7 SE 8 12 1015.0 - 0.0 - - - - - - -
28/12:30pm 29.4 SSE 8 15 1015.4 - 0.0 - - - - - - -
28/12:00pm 29.8 SE 8 13 1015.8 - 0.0 - - - - - - -
28/11:30am 29.1 SE 10 15 1016.4 - 0.0 - - - - - - -
28/11:00am 28.6 SSE 10 14 1016.7 - 0.0 - - - - - - -
28/10:30am 28.7 S 7 11 1017.1 - 0.0 - - - - - - -
28/10:00am 28.3 SSE 7 11 1017.1 - 0.0 - - - - - - -
28/09:30am 28.2 SSE 6 8 1017.3 - 0.0 - - - - - - -
28/09:00am 27.6 SSE 4 7 1017.0 - 3.4 - - - - - - -
28/08:30am 26.2 CALM 0 0 1016.9 - 3.4 - - - - - - -
28/08:00am 24.4 SW 3 6 1016.5 - 3.4 - - - - - - -
28/07:30am 22.9 WSW 2 5 1016.1 - 3.4 - - - - - - -
28/07:00am 22.2 CALM 0 2 1015.9 - 3.4 - - - - - - -
28/06:30am 21.8 CALM 0 0 1015.7 - 3.4 - - - - - - -
28/06:00am 22.0 W 4 8 1015.3 - 3.4 - - - - - - -
28/05:30am 22.0 WNW 3 6 1015.0 - 3.4 - - - - - - -
28/05:00am 22.0 CALM 0 0 1014.8 - 3.4 - - - - - - -
28/04:30am 22.3 CALM 0 0 1014.6 - 3.4 - - - - - - -
28/04:00am 22.5 CALM 0 0 1014.6 - 3.2 - - - - - - -
28/03:30am 22.6 CALM 0 0 1014.5 - 3.2 - - - - - - -
28/03:00am 22.7 W 2 6 1014.3 - 3.2 - - - - - - -
28/02:30am 22.9 CALM 0 0 1014.6 - 3.2 - - - - - - -
28/02:00am 23.0 CALM 0 0 1014.8 - 3.2 - - - - - - -
28/01:30am 23.0 W 2 3 1015.0 - 3.2 - - - - - - -
28/01:00am 23.2 WNW 1 4 1015.2 - 3.2 - - - - - - -
28/12:30am 23.2 WSW 5 7 1015.4 - 3.2 - - - - - - -
28/12:00am 23.5 CALM 0 4 1015.5 - 3.2 - - - - - - -
 
Date/Time
EST
Temp

°C
Wind Pressure Rain
since 9am
mm
Weather Cloud Vis
km
Sea
Height
m
Swell
Dir
 
Speed
knots
Gust
knots
hPa Trend Height
m
Period
s
Dir
27/11:30pm 23.7 WSW 4 7 1015.9 - 3.2 - - - - - - -
27/11:00pm 24.0 WSW 5 7 1016.0 - 3.2 - - - - - - -
27/10:30pm 23.9 W 3 6 1016.2 - 3.2 - - - - - - -
27/10:00pm 24.0 W 3 4 1016.4 - 0.4 - - - - - - -
27/09:30pm 24.1 W 1 4 1016.4 - 0.4 - - - - - - -
27/09:00pm 24.2 WSW 4 6 1016.0 - 0.4 - - - - - - -
27/08:30pm 24.6 WSW 4 5 1015.6 - 0.4 - - - - - - -
27/08:00pm 24.7 W 2 4 1015.3 - 0.4 - - - - - - -
27/07:30pm 25.2 CALM 0 0 1014.9 - 0.4 - - - - - - -
27/07:00pm 25.6 CALM 0 0 1014.8 - 0.4 - - - - - - -
27/06:30pm 26.5 CALM 0 0 1014.5 - 0.4 - - - - - - -
27/06:00pm 27.1 E 3 5 1014.2 - 0.4 - - - - - - -
27/05:30pm 28.1 E 6 11 1014.1 - 0.4 - - - - - - -
27/05:00pm 28.7 SE 5 8 1013.9 - 0.4 - - - - - - -
27/04:30pm 29.8 SE 6 9 1013.8 - 0.4 - - - - - - -
27/04:00pm 29.7 SE 6 8 1013.6 - 0.4 - - - - - - -
27/03:30pm 29.7 SE 6 9 1013.6 - 0.4 - - - - - - -
27/03:00pm 29.7 ESE 6 10 1013.6 - 0.4 - - - - - - -
27/02:30pm 29.3 ESE 7 11 1014.0 - 0.4 - - - - - - -
27/02:00pm 29.4 SE 6 9 1014.1 - 0.4 - - - - - - -
27/01:30pm 29.3 SSE 4 7 1014.4 - 0.4 - - - - - - -
27/01:00pm 28.1 SSE 5 8 1015.0 - 0.4 - - - - - - -
27/12:30pm 27.1 ESE 6 10 1015.5 - 0.4 - - - - - - -
27/12:00pm 28.9 E 5 7 1015.7 - 0.0 - - - - - - -
27/11:30am 29.0 SSE 5 8 1016.4 - 0.0 - - - - - - -
27/11:00am 27.9 SSW 4 6 1016.9 - 0.0 - - - - - - -
27/10:30am 27.6 CALM 0 0 1017.2 - 0.0 - - - - - - -
27/10:00am 27.0 NNE 2 6 1017.1 - 0.0 - - - - - - -
27/09:30am 27.3 CALM 0 0 1017.0 - 0.0 - - - - - - -
27/09:00am 26.8 WSW 3 5 1016.8 - 0.0 - - - - - - -
27/08:30am 26.1 WSW 4 7 1016.7 - 0.0 - - - - - - -
27/08:00am 24.0 WSW 3 7 1016.5 - 0.0 - - - - - - -
27/07:30am 22.8 WNW 4 5 1016.4 - 0.0 - - - - - - -
27/07:00am 21.7 W 3 5 1016.2 - 0.0 - - - - - - -
27/06:30am 21.2 W 3 4 1016.1 - 0.0 - - - - - - -
27/06:00am 21.2 WNW 1 4 1015.7 - 0.0 - - - - - - -
27/05:30am 21.3 CALM 0 0 1015.6 - 0.0 - - - - - - -
27/05:00am 21.4 WNW 3 4 1015.4 - 0.0 - - - - - - -
27/04:30am 21.5 WSW 2 4 1015.3 - 0.0 - - - - - - -
27/04:00am 21.6 CALM 0 0 1015.1 - 0.0 - - - - - - -
27/03:30am 21.7 CALM 0 3 1015.1 - 0.0 - - - - - - -
27/03:00am 21.7 W 2 4 1015.1 - 0.0 - - - - - - -
27/02:30am 21.8 W 2 5 1015.5 - 0.0 - - - - - - -
27/02:00am 22.0 W 4 6 1015.7 - 0.0 - - - - - - -
27/01:30am 22.1 W 2 6 1015.9 - 0.0 - - - - - - -
27/01:00am 22.2 W 4 6 1016.2 - 0.0 - - - - - - -
27/12:30am 22.3 W 5 7 1016.6 - 0.0 - - - - - - -
27/12:00am 22.6 W 4 6 1016.7 - 0.0 - - - - - - -
 
Date/Time
EST
Temp

°C
Wind Pressure Rain
since 9am
mm
Weather Cloud Vis
km
Sea
Height
m
Swell
Dir
 
Speed
knots
Gust
knots
hPa Trend Height
m
Period
s
Dir
26/11:30pm 22.9 W 2 4 1016.8 - 0.0 - - - - - - -
26/11:00pm 23.1 W 2 5 1016.8 - 0.0 - - - - - - -
26/10:30pm 23.4 W 3 6 1016.7 - 0.0 - - - - - - -
26/10:00pm 23.6 W 3 5 1016.7 - 0.0 - - - - - - -
26/09:30pm 23.7 WSW 2 5 1016.4 - 0.0 - - - - - - -
26/09:00pm 23.8 W 1 5 1016.3 - 0.0 - - - - - - -
26/08:30pm 24.2 SW 1 4 1016.1 - 0.0 - - - - - - -
26/08:00pm 24.7 SW 1 4 1015.9 - 0.0 - - - - - - -
26/07:30pm 25.7 S 2 4 1015.6 - 0.0 - - - - - - -
26/07:00pm 26.3 S 3 5 1015.3 - 0.0 - - - - - - -
26/06:30pm 26.0 SE 4 6 1015.0 - 0.0 - - - - - - -
26/06:00pm 27.3 SSE 4 5 1014.6 - 0.0 - - - - - - -
26/05:30pm 28.4 SE 6 10 1014.4 - 0.0 - - - - - - -

Other Formats:

Comma delimited format used in spreadsheet applications
http://www.bom.gov.au/fwo/IDQ60701/IDQ60701.95292.axf

JavaScript Object Notation format (JSON) in row-major order
http://www.bom.gov.au/fwo/IDQ60701/IDQ60701.95292.json